Norris, Illinois
Current Conditions -  °F | °C
As of 10:54 PM on Saturday 20 Dec 2014 (Local Time) from KPIA Reporting Station
Overcast Overcast  
Wind Chill: 31°   Ceiling: 3200
Heat Index: 36°   Visibility: 8mi
Dew Point: 28°   Wind: 6mph
Humidity: 73%   Direction: 150°SSE
Pressure: 30.22"   Gusts: NA
Location:  40.63°N, 90.03°W
Report Text: KPIA 210454Z 15005KT 8SM OVC032 02/M02 A3022 RMK AO2 SLP241 T00221022
Loading
Personal Weather Stations






























Interactive Weather Map New forecast layout! Learn more

10-Day Weather Forecast

Advertisements
Track Severe Weather on mobile